Terminal Aerodrome Forecast
Issued by NWS Albany, NY

Home | Current Version | Previous Version | Text Only | Print | Product List | Glossary On
Versions: 1 2 3 4 5 6 7 8 9 10 11 12 13
000
FTUS41 KALY 272320
TAFGFL
TAF
KGFL 272320Z 2800/2824 34005KT P6SM SCT040 BKN070
     FM280200 00000KT P6SM SCT040
      TEMPO 2804/2806 5SM BR FEW040
     FM280600 00000KT 2SM BR VV004
     FM281200 VRB03KT P6SM SKC
     FM281800 19005KT P6SM SCT040=

USA.gov is the U.S. government's official web portal to all federal, state and local government web resources and services.